Time;durP1;ratioP1;P1;durP2;ratioP2;P2;SDS_P1;SDS_P2;PMS_P1;PMS_P2;Temp;Humidity;BMP_temperature;BMP_pressure;BME280_temperature;BME280_humidity;BME280_pressure;Samples;Min_cycle;Max_cycle;Signal;HPM_P1;HPM_P2
2022/10/20 00:01:27;;;;;;;30.70;16.30;;;;;;;;;;6172168;28;20081;-76
2022/10/20 00:04:28;;;;;;;33.13;16.70;;;;;;;;;;6172542;28;20023;-76
2022/10/20 00:07:28;;;;;;;32.67;15.35;;;;;;;;;;6173216;28;20058;-76
2022/10/20 00:10:28;;;;;;;33.33;15.95;;;;;;;;;;6171586;28;20014;-76
2022/10/20 00:13:29;;;;;;;27.93;17.73;;;;;;;;;;6173292;28;20105;-76
2022/10/20 00:16:30;;;;;;;28.20;15.93;;;;;;;;;;6173705;28;20286;-76
2022/10/20 00:19:31;;;;;;;31.27;16.97;;;;;;;;;;6173994;28;20069;-76
2022/10/20 00:22:32;;;;;;;31.33;15.77;;;;;;;;;;6172694;28;20470;-76
2022/10/20 00:25:32;;;;;;;34.83;16.08;;;;;;;;;;6178419;28;20049;-76
2022/10/20 00:28:32;;;;;;;36.25;16.75;;;;;;;;;;6179957;28;20007;-76
2022/10/20 00:31:33;;;;;;;32.63;17.25;;;;;;;;;;6155203;28;20364;-76
2022/10/20 00:34:33;;;;;;;32.63;16.58;;;;;;;;;;6182981;28;20029;-76
2022/10/20 00:37:33;;;;;;;46.80;20.97;;;;;;;;;;6185590;28;20498;-76
2022/10/20 00:40:33;;;;;;;34.00;17.52;;;;;;;;;;6175362;28;20011;-76
2022/10/20 00:43:41;;;;;;;30.92;16.27;;;;;;;;;;6184614;28;20023;-76
2022/10/20 00:46:41;;;;;;;28.90;15.45;;;;;;;;;;6157410;28;20258;-76
2022/10/20 00:49:41;;;;;;;34.70;16.77;;;;;;;;;;6174281;28;20505;-76
2022/10/20 00:52:43;;;;;;;41.35;17.30;;;;;;;;;;6173754;28;20027;-76
2022/10/20 00:55:45;;;;;;;28.75;15.43;;;;;;;;;;6161094;28;20442;-76
2022/10/20 00:58:45;;;;;;;34.80;15.80;;;;;;;;;;6165629;28;20147;-76
2022/10/20 01:01:46;;;;;;;33.25;15.82;;;;;;;;;;6155358;28;20047;-76
2022/10/20 01:04:46;;;;;;;32.05;17.48;;;;;;;;;;6182671;28;20043;-76
2022/10/20 01:07:46;;;;;;;25.20;13.48;;;;;;;;;;6170112;28;20359;-76
2022/10/20 01:11:05;;;;;;;26.73;14.93;;;;;;;;;;6172903;28;20054;-76
2022/10/20 01:14:08;;;;;;;33.22;16.00;;;;;;;;;;6161832;28;20033;-76
2022/10/20 01:17:19;;;;;;;24.65;13.15;;;;;;;;;;6182352;28;20038;-75
2022/10/20 01:20:38;;;;;;;24.45;14.50;;;;;;;;;;6173456;28;20497;-75
2022/10/20 01:23:54;;;;;;;26.00;15.43;;;;;;;;;;6172217;28;20014;-75
2022/10/20 01:27:12;;;;;;;25.27;12.95;;;;;;;;;;6179481;28;20501;-75
2022/10/20 01:30:12;;;;;;;27.55;14.18;;;;;;;;;;6184341;28;20078;-75
2022/10/20 01:33:31;;;;;;;27.83;14.43;;;;;;;;;;6172819;28;20127;-75
2022/10/20 01:36:39;;;;;;;28.67;13.18;;;;;;;;;;6161098;28;20265;-76
2022/10/20 01:39:51;;;;;;;24.10;13.65;;;;;;;;;;6173698;28;20011;-76
2022/10/20 01:42:52;;;;;;;31.02;13.07;;;;;;;;;;6177607;28;20050;-76
2022/10/20 01:45:53;;;;;;;35.97;15.33;;;;;;;;;;6180275;28;20034;-76
2022/10/20 01:48:53;;;;;;;26.63;13.55;;;;;;;;;;6176431;28;20382;-76
2022/10/20 01:51:54;;;;;;;28.45;13.55;;;;;;;;;;6171546;28;20390;-76
2022/10/20 01:54:55;;;;;;;23.10;12.03;;;;;;;;;;6176747;28;20030;-76
2022/10/20 01:57:57;;;;;;;28.92;13.80;;;;;;;;;;6172921;28;20085;-76
2022/10/20 02:01:01;;;;;;;25.05;13.32;;;;;;;;;;6185476;28;20268;-76
2022/10/20 02:04:02;;;;;;;24.45;13.75;;;;;;;;;;6159725;28;20510;-76
2022/10/20 02:07:10;;;;;;;24.33;12.88;;;;;;;;;;6189766;28;20039;-76
2022/10/20 02:10:13;;;;;;;23.85;13.00;;;;;;;;;;6177324;28;20097;-76
2022/10/20 02:13:14;;;;;;;19.23;11.30;;;;;;;;;;6159429;28;20034;-76
2022/10/20 02:16:18;;;;;;;21.85;11.82;;;;;;;;;;6178566;28;20023;-76
2022/10/20 02:19:20;;;;;;;22.52;11.85;;;;;;;;;;6159001;28;20378;-76
2022/10/20 02:22:21;;;;;;;20.52;11.60;;;;;;;;;;6176434;28;20022;-76
2022/10/20 02:25:22;;;;;;;53.30;14.90;;;;;;;;;;6182202;28;20065;-76
2022/10/20 02:28:23;;;;;;;44.58;14.85;;;;;;;;;;6184534;28;20011;-76
2022/10/20 02:31:23;;;;;;;25.80;13.30;;;;;;;;;;6175556;28;20007;-76
2022/10/20 02:34:24;;;;;;;41.50;12.50;;;;;;;;;;6158403;28;20400;-76
2022/10/20 02:37:24;;;;;;;24.23;10.00;;;;;;;;;;6174646;28;20489;-76
2022/10/20 02:40:25;;;;;;;24.63;10.67;;;;;;;;;;6175097;28;20451;-77
2022/10/20 02:43:25;;;;;;;21.35;12.38;;;;;;;;;;6167729;28;20560;-76
2022/10/20 02:46:25;;;;;;;21.13;11.10;;;;;;;;;;6169086;28;20100;-76
2022/10/20 02:49:26;;;;;;;24.27;12.30;;;;;;;;;;6165645;28;20027;-77
2022/10/20 02:52:26;;;;;;;20.70;11.07;;;;;;;;;;6167897;28;20031;-77
2022/10/20 02:55:27;;;;;;;17.33;10.60;;;;;;;;;;6175212;28;20023;-77
2022/10/20 02:58:27;;;;;;;19.00;9.95;;;;;;;;;;6174391;28;20011;-77
2022/10/20 03:01:27;;;;;;;23.13;11.90;;;;;;;;;;6157908;28;20003;-77
2022/10/20 03:04:27;;;;;;;21.13;11.63;;;;;;;;;;6174948;28;20098;-78
2022/10/20 03:07:27;;;;;;;20.97;9.97;;;;;;;;;;6187915;28;20429;-77
2022/10/20 03:10:28;;;;;;;22.20;10.85;;;;;;;;;;6173912;28;20026;-77
2022/10/20 03:13:28;;;;;;;25.63;11.23;;;;;;;;;;6188174;28;20474;-77
2022/10/20 03:16:28;;;;;;;22.88;12.93;;;;;;;;;;6176259;28;20011;-78
2022/10/20 03:19:29;;;;;;;24.10;12.32;;;;;;;;;;6162030;28;20406;-78
2022/10/20 03:22:29;;;;;;;32.43;13.53;;;;;;;;;;6173852;28;20018;-77
2022/10/20 03:25:29;;;;;;;33.97;13.13;;;;;;;;;;6177540;28;20015;-78
2022/10/20 03:28:30;;;;;;;32.50;15.13;;;;;;;;;;6182511;28;20021;-78
2022/10/20 03:31:30;;;;;;;29.80;13.50;;;;;;;;;;6175419;28;20011;-78
2022/10/20 03:34:30;;;;;;;41.70;14.77;;;;;;;;;;6187435;28;20533;-78
2022/10/20 03:37:31;;;;;;;47.60;13.57;;;;;;;;;;6177963;28;20416;-78
2022/10/20 03:40:31;;;;;;;44.92;13.77;;;;;;;;;;6176184;28;20022;-78
2022/10/20 03:43:31;;;;;;;55.08;13.52;;;;;;;;;;6187763;28;20023;-78
2022/10/20 03:46:31;;;;;;;53.52;14.30;;;;;;;;;;6158134;28;20346;-77
2022/10/20 03:49:32;;;;;;;33.93;12.13;;;;;;;;;;6157167;28;20027;-78
2022/10/20 03:52:32;;;;;;;35.40;12.10;;;;;;;;;;6171441;28;20750;-78
2022/10/20 03:55:33;;;;;;;35.63;11.10;;;;;;;;;;6172312;28;20277;-78
2022/10/20 03:58:33;;;;;;;38.75;11.75;;;;;;;;;;6149112;28;20255;-78
2022/10/20 04:01:34;;;;;;;25.25;12.25;;;;;;;;;;6163858;28;20020;-78
2022/10/20 04:04:34;;;;;;;30.43;11.80;;;;;;;;;;6166491;28;20029;-78
2022/10/20 04:07:34;;;;;;;48.50;12.17;;;;;;;;;;6157824;28;20437;-78
2022/10/20 04:10:34;;;;;;;33.40;11.50;;;;;;;;;;6169166;28;20282;-77
2022/10/20 04:13:35;;;;;;;34.80;10.52;;;;;;;;;;6156320;28;20553;-77
2022/10/20 04:16:35;;;;;;;28.43;11.23;;;;;;;;;;6174474;28;20374;-78
2022/10/20 04:19:35;;;;;;;28.70;11.50;;;;;;;;;;6156002;28;20038;-79
2022/10/20 04:22:37;;;;;;;33.95;12.80;;;;;;;;;;6173895;28;20014;-78
2022/10/20 04:25:44;;;;;;;31.50;11.00;;;;;;;;;;6169670;28;20041;-79
2022/10/20 04:28:44;;;;;;;23.13;9.95;;;;;;;;;;6168966;28;20047;-79
2022/10/20 04:31:44;;;;;;;36.30;12.53;;;;;;;;;;6163285;28;20023;-79
2022/10/20 04:34:45;;;;;;;27.30;10.90;;;;;;;;;;6173947;28;20274;-79
2022/10/20 04:37:45;;;;;;;15.73;8.10;;;;;;;;;;6173808;28;20335;-79
2022/10/20 04:40:52;;;;;;;21.85;10.57;;;;;;;;;;6174475;28;20061;-79
2022/10/20 04:43:52;;;;;;;38.45;11.85;;;;;;;;;;6153727;28;20270;-79
2022/10/20 04:46:53;;;;;;;32.97;11.63;;;;;;;;;;6157825;28;20033;-80
2022/10/20 04:49:53;;;;;;;32.33;12.07;;;;;;;;;;6157818;28;20106;-80
2022/10/20 04:52:53;;;;;;;23.70;10.23;;;;;;;;;;6180457;28;20030;-80
2022/10/20 04:55:55;;;;;;;25.77;9.50;;;;;;;;;;6198944;28;20021;-80
2022/10/20 04:58:57;;;;;;;22.25;9.90;;;;;;;;;;6156305;28;20019;-80
2022/10/20 05:01:57;;;;;;;26.77;9.53;;;;;;;;;;6153858;28;20023;-80
2022/10/20 05:04:57;;;;;;;24.23;10.57;;;;;;;;;;6169616;28;20418;-80
2022/10/20 05:07:57;;;;;;;24.92;11.50;;;;;;;;;;6163085;28;20033;-80
2022/10/20 05:10:59;;;;;;;23.57;9.73;;;;;;;;;;6151862;28;20031;-80
2022/10/20 05:13:59;;;;;;;20.35;10.10;;;;;;;;;;6148689;28;20126;-80
2022/10/20 05:16:59;;;;;;;23.50;10.32;;;;;;;;;;6155753;28;20016;-79
2022/10/20 05:19:59;;;;;;;23.15;10.65;;;;;;;;;;6162276;28;20266;-80
2022/10/20 05:22:59;;;;;;;26.23;10.77;;;;;;;;;;6161325;28;20347;-80
2022/10/20 05:26:04;;;;;;;53.67;15.10;;;;;;;;;;6143545;28;20530;-79
2022/10/20 05:29:06;;;;;;;32.72;14.90;;;;;;;;;;6171377;28;20371;-79
2022/10/20 05:32:06;;;;;;;25.63;12.75;;;;;;;;;;6176635;28;20020;-80
2022/10/20 05:35:06;;;;;;;26.48;12.30;;;;;;;;;;6169788;28;20023;-80
2022/10/20 05:38:06;;;;;;;23.27;13.53;;;;;;;;;;6181404;28;20228;-80
2022/10/20 05:41:11;;;;;;;27.88;15.20;;;;;;;;;;6178940;28;20455;-80
2022/10/20 05:44:12;;;;;;;84.95;34.22;;;;;;;;;;6182336;28;20041;-80
2022/10/20 05:47:12;;;;;;;87.57;34.97;;;;;;;;;;6160721;28;20022;-80
2022/10/20 05:50:12;;;;;;;81.10;34.20;;;;;;;;;;6177866;28;20039;-79
2022/10/20 05:53:12;;;;;;;34.72;17.40;;;;;;;;;;6158015;28;20081;-79
2022/10/20 05:56:14;;;;;;;18.67;10.43;;;;;;;;;;6174890;28;20085;-79
2022/10/20 05:59:14;;;;;;;23.15;11.93;;;;;;;;;;6177824;28;20015;-79
2022/10/20 06:02:14;;;;;;;21.33;13.40;;;;;;;;;;6180476;28;20023;-78
2022/10/20 06:05:15;;;;;;;21.17;12.40;;;;;;;;;;6179406;28;20053;-78
2022/10/20 06:08:15;;;;;;;22.27;13.10;;;;;;;;;;6168599;28;20030;-78
2022/10/20 06:11:15;;;;;;;20.97;10.50;;;;;;;;;;6170694;28;20394;-78
2022/10/20 06:14:16;;;;;;;22.80;10.47;;;;;;;;;;6158655;28;20058;-78
2022/10/20 06:17:16;;;;;;;16.20;11.93;;;;;;;;;;6170142;28;20390;-78
2022/10/20 06:20:16;;;;;;;27.58;16.85;;;;;;;;;;6167511;28;20023;-78
2022/10/20 06:23:16;;;;;;;44.33;23.30;;;;;;;;;;6154692;28;20349;-78
2022/10/20 06:26:18;;;;;;;45.70;19.15;;;;;;;;;;6170210;28;20015;-78
2022/10/20 06:29:18;;;;;;;28.15;14.95;;;;;;;;;;6157049;28;20077;-78
2022/10/20 06:32:18;;;;;;;21.63;10.50;;;;;;;;;;6170589;28;20532;-78
2022/10/20 06:35:19;;;;;;;15.98;8.95;;;;;;;;;;6160202;28;20023;-77
2022/10/20 06:38:19;;;;;;;18.23;9.60;;;;;;;;;;6167993;28;20102;-77
2022/10/20 06:41:19;;;;;;;17.25;10.55;;;;;;;;;;6165745;28;20018;-77
2022/10/20 06:44:20;;;;;;;17.03;10.27;;;;;;;;;;6170502;28;20046;-77
2022/10/20 06:47:20;;;;;;;18.93;12.33;;;;;;;;;;6175585;28;20023;-77
2022/10/20 06:50:20;;;;;;;14.80;10.40;;;;;;;;;;6183386;28;20011;-77
2022/10/20 06:53:21;;;;;;;17.77;10.57;;;;;;;;;;6167869;28;20025;-77
2022/10/20 06:56:22;;;;;;;19.50;10.53;;;;;;;;;;6165850;28;20387;-77
2022/10/20 06:59:22;;;;;;;18.02;9.95;;;;;;;;;;6157724;28;20391;-77
2022/10/20 07:02:22;;;;;;;19.77;10.40;;;;;;;;;;6151991;28;20066;-77
2022/10/20 07:05:23;;;;;;;17.63;9.57;;;;;;;;;;6169724;28;20047;-77
2022/10/20 07:08:23;;;;;;;18.48;10.85;;;;;;;;;;6168620;28;20382;-77
2022/10/20 07:11:25;;;;;;;20.40;9.37;;;;;;;;;;6163504;28;20125;-77
2022/10/20 07:14:25;;;;;;;19.83;10.38;;;;;;;;;;6168443;28;20059;-77
2022/10/20 07:17:25;;;;;;;14.73;9.23;;;;;;;;;;6174148;28;20021;-77
2022/10/20 07:20:26;;;;;;;15.82;9.13;;;;;;;;;;6168451;28;20015;-77
2022/10/20 07:23:26;;;;;;;14.13;7.97;;;;;;;;;;6168989;28;20414;-77
2022/10/20 07:26:28;;;;;;;15.43;8.57;;;;;;;;;;6174728;28;20030;-77
2022/10/20 07:29:28;;;;;;;18.25;10.93;;;;;;;;;;6156092;28;20022;-76
2022/10/20 07:32:29;;;;;;;15.83;8.30;;;;;;;;;;6174023;28;20442;-76
2022/10/20 07:35:29;;;;;;;16.02;10.80;;;;;;;;;;6147980;28;20023;-76
2022/10/20 07:38:30;;;;;;;15.05;8.70;;;;;;;;;;6154014;28;20026;-76
2022/10/20 07:41:30;;;;;;;14.05;8.00;;;;;;;;;;6155746;28;20089;-76
2022/10/20 07:44:30;;;;;;;14.03;8.27;;;;;;;;;;6163274;28;20029;-75
2022/10/20 07:47:30;;;;;;;14.23;7.47;;;;;;;;;;6156566;28;20514;-75
2022/10/20 07:50:31;;;;;;;15.13;7.10;;;;;;;;;;6163672;28;20066;-75
2022/10/20 07:53:31;;;;;;;12.50;6.80;;;;;;;;;;6167593;28;20026;-75
2022/10/20 07:56:33;;;;;;;13.13;7.15;;;;;;;;;;6159192;28;20500;-75
2022/10/20 07:59:33;;;;;;;;;;;;;;;;;;6163325;28;20059;-75
2022/10/20 08:02:33;;;;;;;20.17;8.73;;;;;;;;;;6158145;28;20420;-75
2022/10/20 08:05:33;;;;;;;14.57;7.60;;;;;;;;;;6160534;28;20081;-75
2022/10/20 08:08:33;;;;;;;15.98;8.68;;;;;;;;;;6158563;28;20011;-74
2022/10/20 08:11:34;;;;;;;14.02;8.07;;;;;;;;;;6167289;28;20098;-75
2022/10/20 08:14:36;;;;;;;16.17;8.70;;;;;;;;;;6163917;28;20026;-75
2022/10/20 08:17:36;;;;;;;13.50;7.38;;;;;;;;;;6152210;28;20517;-75
2022/10/20 08:20:37;;;;;;;16.50;7.82;;;;;;;;;;6149281;28;20486;-75
2022/10/20 08:23:38;;;;;;;16.23;7.32;;;;;;;;;;6172240;28;20014;-75
2022/10/20 08:26:38;;;;;;;15.20;7.07;;;;;;;;;;6156034;28;20042;-75
2022/10/20 08:29:38;;;;;;;14.63;6.70;;;;;;;;;;6172084;28;20031;-75
2022/10/20 08:32:39;;;;;;;12.00;5.50;;;;;;;;;;6154655;28;20022;-75
2022/10/20 08:35:39;;;;;;;11.43;5.10;;;;;;;;;;6162632;28;20019;-74
2022/10/20 08:38:40;;;;;;;9.35;4.60;;;;;;;;;;6164683;28;20445;-74
2022/10/20 08:41:44;;;;;;;9.07;4.63;;;;;;;;;;6164689;28;20023;-75
2022/10/20 08:44:46;;;;;;;9.70;5.07;;;;;;;;;;6159471;28;20031;-75
2022/10/20 08:47:46;;;;;;;;;;;;;;;;;;6158265;28;20029;-75
2022/10/20 08:50:47;;;;;;;8.85;3.83;;;;;;;;;;6159361;28;19914;-75
2022/10/20 08:53:49;;;;;;;10.10;5.40;;;;;;;;;;6154008;28;20027;-75
2022/10/20 08:56:49;;;;;;;7.55;4.20;;;;;;;;;;6153611;28;20018;-75
2022/10/20 08:59:51;;;;;;;8.83;3.87;;;;;;;;;;6158738;28;20023;-75
2022/10/20 09:02:51;;;;;;;8.50;3.92;;;;;;;;;;6148025;28;20023;-75
2022/10/20 09:05:53;;;;;;;7.07;3.17;;;;;;;;;;6172232;28;20058;-75
2022/10/20 09:08:54;;;;;;;10.23;3.75;;;;;;;;;;6163036;28;20022;-75
2022/10/20 09:11:56;;;;;;;5.43;3.08;;;;;;;;;;6166735;28;20755;-76
2022/10/20 09:14:57;;;;;;;4.95;2.75;;;;;;;;;;6168274;28;20039;-76
2022/10/20 09:18:08;;;;;;;4.57;2.53;;;;;;;;;;6166969;28;20015;-75
2022/10/20 09:21:16;;;;;;;6.50;3.23;;;;;;;;;;6167307;28;20390;-75
2022/10/20 09:24:17;;;;;;;7.07;2.50;;;;;;;;;;6155254;28;20046;-75
2022/10/20 09:27:22;;;;;;;5.15;2.80;;;;;;;;;;6168802;28;20381;-76
2022/10/20 09:30:24;;;;;;;10.20;2.85;;;;;;;;;;6156311;28;20034;-75
2022/10/20 09:33:32;;;;;;;2.47;1.63;;;;;;;;;;6151438;28;20061;-75
2022/10/20 09:36:33;;;;;;;3.20;2.08;;;;;;;;;;6150071;28;20471;-76
2022/10/20 09:39:45;;;;;;;2.90;1.90;;;;;;;;;;6165415;28;20046;-75
2022/10/20 09:42:51;;;;;;;3.78;1.95;;;;;;;;;;6164917;28;20034;-76
2022/10/20 09:45:53;;;;;;;4.88;2.28;;;;;;;;;;6151431;28;20109;-75
2022/10/20 09:48:53;;;;;;;;;;;;;;;;;;6175025;28;20430;-75
2022/10/20 09:51:54;;;;;;;7.43;2.25;;;;;;;;;;6167486;28;20384;-74
2022/10/20 09:54:56;;;;;;;3.17;1.87;;;;;;;;;;6170387;28;20027;-74
2022/10/20 09:57:57;;;;;;;1.77;1.60;;;;;;;;;;6163565;28;20070;-74
2022/10/20 10:01:24;;;;;;;2.70;1.17;;;;;;;;;;6161351;28;20557;-74
2022/10/20 10:04:31;;;;;;;4.28;2.03;;;;;;;;;;6164985;28;20122;-75
2022/10/20 10:07:32;;;;;;;3.67;2.22;;;;;;;;;;6176671;28;20054;-75
2022/10/20 10:10:32;;;;;;;2.77;1.80;;;;;;;;;;6171893;28;20022;-75
2022/10/20 10:13:37;;;;;;;2.30;1.57;;;;;;;;;;6171837;28;20027;-75
2022/10/20 10:16:39;;;;;;;3.45;1.50;;;;;;;;;;6175881;28;20021;-75
2022/10/20 10:19:46;;;;;;;5.47;1.83;;;;;;;;;;6172596;28;20026;-75
2022/10/20 10:22:46;;;;;;;2.33;1.15;;;;;;;;;;6152954;28;20475;-76
2022/10/20 10:25:47;;;;;;;2.97;1.33;;;;;;;;;;6170701;28;20015;-75
2022/10/20 10:28:56;;;;;;;3.80;1.37;;;;;;;;;;6167686;28;20699;-75
2022/10/20 10:31:58;;;;;;;2.20;1.20;;;;;;;;;;6166533;28;20282;-75
2022/10/20 10:35:30;;;;;;;3.00;1.50;;;;;;;;;;6168298;28;20022;-75
2022/10/20 10:38:31;;;;;;;3.10;1.35;;;;;;;;;;6147645;28;20027;-75
2022/10/20 10:41:34;;;;;;;2.25;1.13;;;;;;;;;;6157719;28;20073;-75
2022/10/20 10:44:52;;;;;;;2.08;1.35;;;;;;;;;;6175472;28;20409;-75
2022/10/20 10:48:06;;;;;;;3.95;1.70;;;;;;;;;;6172377;28;20494;-76
2022/10/20 10:51:09;;;;;;;2.08;1.13;;;;;;;;;;6158764;28;20468;-75
2022/10/20 10:54:24;;;;;;;2.30;1.10;;;;;;;;;;6174488;28;20463;-75
2022/10/20 10:57:24;;;;;;;1.50;1.05;;;;;;;;;;6174544;28;20015;-75
2022/10/20 11:00:43;;;;;;;1.25;0.90;;;;;;;;;;6164708;28;20031;-75
2022/10/20 11:04:03;;;;;;;2.42;1.25;;;;;;;;;;6164293;28;20089;-75
2022/10/20 11:07:12;;;;;;;4.40;1.77;;;;;;;;;;6147916;28;20127;-74
2022/10/20 11:10:25;;;;;;;3.30;1.15;;;;;;;;;;6169823;28;20034;-75
2022/10/20 11:13:28;;;;;;;9.20;1.73;;;;;;;;;;6158552;28;20031;-75
2022/10/20 11:16:34;;;;;;;2.92;1.80;;;;;;;;;;6161093;28;20069;-75
2022/10/20 11:19:43;;;;;;;10.45;4.15;;;;;;;;;;6154747;28;20022;-75
2022/10/20 11:22:43;;;;;;;5.03;2.47;;;;;;;;;;6158983;28;20031;-75
2022/10/20 11:26:13;;;;;;;2.80;1.20;;;;;;;;;;6167098;28;20019;-75
2022/10/20 11:29:16;;;;;;;2.50;1.05;;;;;;;;;;6160282;28;20037;-75
2022/10/20 11:32:20;;;;;;;5.82;2.28;;;;;;;;;;6169189;28;20054;-75
2022/10/20 11:35:32;;;;;;;4.05;1.83;;;;;;;;;;6173230;28;20101;-75
2022/10/20 11:38:45;;;;;;;1.98;0.88;;;;;;;;;;6154819;28;20022;-75
2022/10/20 11:41:50;;;;;;;2.05;1.02;;;;;;;;;;6169849;28;20019;-75
2022/10/20 11:44:52;;;;;;;4.40;1.35;;;;;;;;;;6160899;28;20039;-75
2022/10/20 11:47:56;;;;;;;4.07;1.33;;;;;;;;;;6167060;28;20054;-76
2022/10/20 11:51:15;;;;;;;1.15;1.02;;;;;;;;;;6162725;28;20147;-75
2022/10/20 11:54:15;;;;;;;2.50;0.98;;;;;;;;;;6160101;28;20390;-75
2022/10/20 11:57:23;;;;;;;5.00;1.57;;;;;;;;;;6158812;28;20273;-75
2022/10/20 12:00:23;;;;;;;3.15;1.42;;;;;;;;;;6156969;28;20011;-74
2022/10/20 12:03:41;;;;;;;2.15;1.50;;;;;;;;;;6158339;28;20026;-76
2022/10/20 12:06:50;;;;;;;3.50;0.90;;;;;;;;;;6171291;28;20042;-75
2022/10/20 12:09:59;;;;;;;2.35;1.25;;;;;;;;;;6154972;28;20054;-76
2022/10/20 12:13:18;;;;;;;3.80;1.30;;;;;;;;;;6172158;28;20071;-75
2022/10/20 12:16:37;;;;;;;2.55;1.52;;;;;;;;;;6161130;28;20019;-75
2022/10/20 12:19:37;;;;;;;8.50;2.85;;;;;;;;;;6154387;28;20439;-75
2022/10/20 12:22:39;;;;;;;4.07;1.60;;;;;;;;;;6159868;28;20023;-75
2022/10/20 12:25:40;;;;;;;2.28;1.45;;;;;;;;;;6168879;28;20182;-75
2022/10/20 12:28:40;;;;;;;5.07;1.90;;;;;;;;;;6159008;28;20023;-74
2022/10/20 12:31:59;;;;;;;4.93;2.37;;;;;;;;;;6172698;28;20390;-74
2022/10/20 12:35:01;;;;;;;5.03;1.88;;;;;;;;;;6159910;28;20527;-75
2022/10/20 12:38:02;;;;;;;;;;;;;;;;;;6166767;28;20034;-75
2022/10/20 12:41:03;;;;;;;3.60;1.75;;;;;;;;;;6167711;28;20324;-75
2022/10/20 12:44:04;;;;;;;4.73;1.60;;;;;;;;;;6169794;28;20023;-75
2022/10/20 12:47:05;;;;;;;6.22;3.10;;;;;;;;;;6158172;28;20032;-75
2022/10/20 12:50:27;;;;;;;5.75;2.28;;;;;;;;;;6186337;28;20442;-75
2022/10/20 12:53:27;;;;;;;;;;;;;;;;;;6149118;28;20058;-75
2022/10/20 12:56:31;;;;;;;5.53;2.53;;;;;;;;;;6169677;28;19909;-75
2022/10/20 12:59:33;;;;;;;6.57;2.22;;;;;;;;;;6171389;28;20030;-75
2022/10/20 13:02:33;;;;;;;;;;;;;;;;;;6155209;28;20143;-76
2022/10/20 13:05:42;;;;;;;10.07;1.80;;;;;;;;;;6173202;28;20008;-75
2022/10/20 13:09:02;;;;;;;7.00;2.10;;;;;;;;;;6171510;28;20023;-75
2022/10/20 13:12:03;;;;;;;4.20;2.60;;;;;;;;;;6158735;28;20491;-75
2022/10/20 13:15:08;;;;;;;4.80;1.83;;;;;;;;;;6166696;28;20054;-76
2022/10/20 13:18:11;;;;;;;4.22;2.65;;;;;;;;;;6171129;28;20014;-75
2022/10/20 13:21:21;;;;;;;6.35;2.60;;;;;;;;;;6155570;28;20023;-75
2022/10/20 13:24:29;;;;;;;4.68;1.98;;;;;;;;;;6159880;28;20022;-77
2022/10/20 13:27:30;;;;;;;5.72;2.60;;;;;;;;;;6172054;28;20025;-75
2022/10/20 13:30:31;;;;;;;4.70;2.27;;;;;;;;;;6169377;28;20360;-75
2022/10/20 13:33:38;;;;;;;5.15;3.10;;;;;;;;;;6169670;28;20235;-75
2022/10/20 13:37:01;;;;;;;5.28;2.80;;;;;;;;;;6177365;28;20069;-75
2022/10/20 13:40:09;;;;;;;8.10;2.85;;;;;;;;;;6156121;28;20459;-75
2022/10/20 13:43:28;;;;;;;8.02;3.08;;;;;;;;;;6176497;28;20023;-76
2022/10/20 13:46:35;;;;;;;7.38;3.10;;;;;;;;;;6164631;28;20022;-76
2022/10/20 13:49:54;;;;;;;6.30;3.00;;;;;;;;;;6174709;28;20122;-76
2022/10/20 13:52:56;;;;;;;5.43;2.30;;;;;;;;;;6169917;28;20050;-77
2022/10/20 13:55:56;;;;;;;;;;;;;;;;;;6182261;28;20030;-77
2022/10/20 13:59:01;;;;;;;6.35;2.22;;;;;;;;;;6163565;28;20212;-77
2022/10/20 14:02:20;;;;;;;5.82;2.65;;;;;;;;;;6174066;28;20081;-76
2022/10/20 14:05:21;;;;;;;7.20;2.10;;;;;;;;;;6156040;28;20061;-76
2022/10/20 14:08:21;;;;;;;3.53;2.17;;;;;;;;;;6158129;28;20019;-76
2022/10/20 14:11:21;;;;;;;4.30;2.10;;;;;;;;;;6157364;28;20023;-76
2022/10/20 14:14:24;;;;;;;3.67;1.73;;;;;;;;;;6172342;28;20026;-76
2022/10/20 14:17:24;;;;;;;5.55;2.50;;;;;;;;;;6171839;28;20027;-76
2022/10/20 14:20:25;;;;;;;4.47;2.07;;;;;;;;;;6174710;28;20101;-76
2022/10/20 14:23:26;;;;;;;3.53;2.03;;;;;;;;;;6172963;28;20033;-76
2022/10/20 14:26:27;;;;;;;4.25;1.98;;;;;;;;;;6172664;28;20478;-76
2022/10/20 14:29:29;;;;;;;5.40;2.20;;;;;;;;;;6167478;28;20027;-75
2022/10/20 14:32:39;;;;;;;4.80;1.90;;;;;;;;;;6170378;28;20042;-75
2022/10/20 14:35:45;;;;;;;4.45;2.13;;;;;;;;;;6168358;28;20090;-73
2022/10/20 14:38:46;;;;;;;5.32;2.25;;;;;;;;;;6170213;28;20046;-74
2022/10/20 14:41:46;;;;;;;5.63;2.10;;;;;;;;;;6155877;28;20073;-74
2022/10/20 14:44:48;;;;;;;6.30;2.63;;;;;;;;;;6174436;28;20054;-75
2022/10/20 14:47:49;;;;;;;6.50;3.75;;;;;;;;;;6175998;28;20022;-76
2022/10/20 14:50:49;;;;;;;5.33;1.73;;;;;;;;;;6172076;28;20096;-75
2022/10/20 14:53:49;;;;;;;6.07;3.47;;;;;;;;;;6154548;28;20026;-75
2022/10/20 14:56:49;;;;;;;7.95;3.42;;;;;;;;;;6169921;28;20085;-75
2022/10/20 14:59:57;;;;;;;3.83;1.80;;;;;;;;;;6145568;28;20106;-75
2022/10/20 15:03:01;;;;;;;6.45;2.10;;;;;;;;;;6172105;28;20157;-75
2022/10/20 15:06:02;;;;;;;4.15;1.80;;;;;;;;;;6156192;28;20039;-75
2022/10/20 15:09:03;;;;;;;4.82;1.83;;;;;;;;;;6150471;28;20078;-75
2022/10/20 15:12:04;;;;;;;3.50;1.93;;;;;;;;;;6150482;29;20027;-75
2022/10/20 15:15:06;;;;;;;4.75;1.60;;;;;;;;;;6143748;28;20046;-75
2022/10/20 15:18:08;;;;;;;5.90;2.03;;;;;;;;;;6150117;29;20371;-75
2022/10/20 15:21:10;;;;;;;4.70;2.08;;;;;;;;;;6151187;29;20159;-75
2022/10/20 15:24:10;;;;;;;;;;;;;;;;;;6149747;29;20030;-75
2022/10/20 15:27:15;;;;;;;3.25;2.05;;;;;;;;;;6162101;28;20322;-75
2022/10/20 15:30:16;;;;;;;4.90;2.17;;;;;;;;;;6151170;29;20066;-75
2022/10/20 15:33:17;;;;;;;5.23;1.97;;;;;;;;;;6149457;29;20020;-74
2022/10/20 15:36:20;;;;;;;5.45;2.00;;;;;;;;;;6151063;29;20646;-74
2022/10/20 15:39:20;;;;;;;5.90;2.15;;;;;;;;;;6163394;28;20023;-74
2022/10/20 15:42:20;;;;;;;6.53;1.83;;;;;;;;;;6148635;29;20027;-75
2022/10/20 15:45:21;;;;;;;5.07;2.30;;;;;;;;;;6137818;29;20639;-75
2022/10/20 15:48:24;;;;;;;5.75;1.85;;;;;;;;;;6134470;28;20647;-75
2022/10/20 15:51:26;;;;;;;4.93;2.53;;;;;;;;;;6139929;28;20102;-76
2022/10/20 15:54:27;;;;;;;5.32;2.63;;;;;;;;;;6164106;28;20086;-75
2022/10/20 15:57:27;;;;;;;6.05;2.45;;;;;;;;;;6142710;28;20488;-75
2022/10/20 16:00:27;;;;;;;7.30;2.43;;;;;;;;;;6132086;29;20047;-75
2022/10/20 16:03:28;;;;;;;6.63;3.20;;;;;;;;;;6161976;28;20023;-75
2022/10/20 16:06:28;;;;;;;11.13;4.37;;;;;;;;;;6146260;28;20125;-75
2022/10/20 16:09:28;;;;;;;12.93;4.20;;;;;;;;;;6137503;28;20262;-75
2022/10/20 16:12:28;;;;;;;12.50;5.40;;;;;;;;;;6134196;29;20505;-75
2022/10/20 16:15:29;;;;;;;11.70;5.70;;;;;;;;;;6140243;28;20027;-75
2022/10/20 16:18:29;;;;;;;15.02;5.45;;;;;;;;;;6133762;28;20331;-78
2022/10/20 16:21:29;;;;;;;12.25;5.93;;;;;;;;;;6135369;29;20082;-76
2022/10/20 16:24:29;;;;;;;13.05;5.88;;;;;;;;;;6153535;28;20030;-76
2022/10/20 16:27:31;;;;;;;14.82;6.47;;;;;;;;;;6133045;28;20480;-76
2022/10/20 16:30:31;;;;;;;15.50;6.70;;;;;;;;;;6140206;28;20097;-76
2022/10/20 16:33:31;;;;;;;17.75;7.55;;;;;;;;;;6160384;28;20077;-76
2022/10/20 16:36:32;;;;;;;18.35;8.57;;;;;;;;;;6144193;28;20066;-75
2022/10/20 16:39:32;;;;;;;25.85;12.30;;;;;;;;;;6147802;29;20071;-76
2022/10/20 16:42:32;;;;;;;33.23;16.10;;;;;;;;;;6140860;29;20032;-76
2022/10/20 16:45:33;;;;;;;38.90;16.40;;;;;;;;;;6153645;28;20635;-76
2022/10/20 16:48:33;;;;;;;37.33;16.73;;;;;;;;;;6142340;28;20744;-76
2022/10/20 16:51:33;;;;;;;32.03;16.35;;;;;;;;;;6149538;28;20050;-76
2022/10/20 16:54:34;;;;;;;50.30;20.60;;;;;;;;;;6137218;28;20020;-76
2022/10/20 16:57:37;;;;;;;46.50;20.90;;;;;;;;;;6133597;28;20023;-75
2022/10/20 17:00:37;;;;;;;40.08;19.08;;;;;;;;;;6145780;28;20046;-75
2022/10/20 17:03:41;;;;;;;41.13;20.57;;;;;;;;;;6157276;28;20442;-75
2022/10/20 17:06:41;;;;;;;42.08;20.48;;;;;;;;;;6138952;28;20050;-76
2022/10/20 17:09:41;;;;;;;46.00;20.67;;;;;;;;;;6142060;28;20102;-75
2022/10/20 17:12:45;;;;;;;39.37;19.90;;;;;;;;;;6152400;28;20608;-75
2022/10/20 17:15:45;;;;;;;50.17;24.02;;;;;;;;;;6151005;28;20294;-75
2022/10/20 17:18:45;;;;;;;35.72;17.95;;;;;;;;;;6154476;28;20054;-75
2022/10/20 17:21:45;;;;;;;36.15;18.15;;;;;;;;;;6153683;28;20517;-75
2022/10/20 17:24:45;;;;;;;43.37;22.20;;;;;;;;;;6147856;28;20022;-76
2022/10/20 17:27:46;;;;;;;42.57;20.37;;;;;;;;;;6147945;28;20381;-76
2022/10/20 17:30:46;;;;;;;43.17;21.00;;;;;;;;;;6152937;28;20267;-76
2022/10/20 17:33:47;;;;;;;39.42;20.33;;;;;;;;;;6162748;28;20022;-76
2022/10/20 17:36:47;;;;;;;38.40;19.05;;;;;;;;;;6142817;28;20026;-75
2022/10/20 17:39:47;;;;;;;34.93;16.17;;;;;;;;;;6152188;28;20522;-75
2022/10/20 17:42:47;;;;;;;44.33;20.67;;;;;;;;;;6145754;28;20489;-75
2022/10/20 17:45:58;;;;;;;34.97;17.50;;;;;;;;;;6139264;28;20031;-76
2022/10/20 17:49:00;;;;;;;32.47;17.67;;;;;;;;;;6149024;28;20038;-76
2022/10/20 17:52:00;;;;;;;;;;;;;;;;;;6144958;28;20023;-77
2022/10/20 17:55:00;;;;;;;40.08;18.65;;;;;;;;;;6150245;29;19925;-77
2022/10/20 17:58:00;;;;;;;38.42;19.42;;;;;;;;;;6165442;28;20395;-75
2022/10/20 18:01:11;;;;;;;37.53;20.45;;;;;;;;;;6139342;29;20023;-75